sensor_id;sensor_type;location;lat;lon;timestamp;temperature;humidity
43673;DHT22;41723;49.326;8.430;2023-12-22T00:01:05;7.90;99.90
43673;DHT22;41723;49.326;8.430;2023-12-22T00:03:31;8.10;99.90
43673;DHT22;41723;49.326;8.430;2023-12-22T00:05:56;8.30;99.90
43673;DHT22;41723;49.326;8.430;2023-12-22T00:08:22;8.00;99.90
43673;DHT22;41723;49.326;8.430;2023-12-22T00:10:49;8.10;99.90
43673;DHT22;41723;49.326;8.430;2023-12-22T00:13:14;8.30;99.90
43673;DHT22;41723;49.326;8.430;2023-12-22T00:15:40;8.20;99.90
43673;DHT22;41723;49.326;8.430;2023-12-22T00:18:07;8.10;99.90
43673;DHT22;41723;49.326;8.430;2023-12-22T00:20:33;8.00;99.90
43673;DHT22;41723;49.326;8.430;2023-12-22T00:22:59;8.00;99.90
43673;DHT22;41723;49.326;8.430;2023-12-22T00:25:24;7.90;99.90
43673;DHT22;41723;49.326;8.430;2023-12-22T00:27:50;8.20;99.90
43673;DHT22;41723;49.326;8.430;2023-12-22T00:30:16;8.20;99.90
43673;DHT22;41723;49.326;8.430;2023-12-22T00:32:41;8.20;99.90
43673;DHT22;41723;49.326;8.430;2023-12-22T00:35:07;8.40;99.90
43673;DHT22;41723;49.326;8.430;2023-12-22T00:37:32;8.30;99.90
43673;DHT22;41723;49.326;8.430;2023-12-22T00:39:58;8.40;99.90
43673;DHT22;41723;49.326;8.430;2023-12-22T00:42:24;8.40;99.90
43673;DHT22;41723;49.326;8.430;2023-12-22T00:44:49;8.40;99.90
43673;DHT22;41723;49.326;8.430;2023-12-22T00:47:15;8.20;99.90
43673;DHT22;41723;49.326;8.430;2023-12-22T00:49:40;8.30;99.90
43673;DHT22;41723;49.326;8.430;2023-12-22T00:52:06;8.30;99.90
43673;DHT22;41723;49.326;8.430;2023-12-22T00:54:32;8.30;99.90
43673;DHT22;41723;49.326;8.430;2023-12-22T00:56:57;8.40;99.90
43673;DHT22;41723;49.326;8.430;2023-12-22T00:59:23;8.50;99.90
43673;DHT22;41723;49.326;8.430;2023-12-22T01:01:49;8.30;99.90
43673;DHT22;41723;49.326;8.430;2023-12-22T01:04:15;8.30;99.90
43673;DHT22;41723;49.326;8.430;2023-12-22T01:06:40;8.20;99.90
43673;DHT22;41723;49.326;8.430;2023-12-22T01:09:06;8.20;99.90
43673;DHT22;41723;49.326;8.430;2023-12-22T01:11:32;8.10;99.90
43673;DHT22;41723;49.326;8.430;2023-12-22T01:13:57;8.20;99.90
43673;DHT22;41723;49.326;8.430;2023-12-22T01:16:23;8.30;99.90
43673;DHT22;41723;49.326;8.430;2023-12-22T01:18:49;8.40;99.90
43673;DHT22;41723;49.326;8.430;2023-12-22T01:21:16;8.40;99.90
43673;DHT22;41723;49.326;8.430;2023-12-22T01:23:41;8.50;99.90
43673;DHT22;41723;49.326;8.430;2023-12-22T01:26:07;8.60;99.90
43673;DHT22;41723;49.326;8.430;2023-12-22T01:28:33;8.60;99.90
43673;DHT22;41723;49.326;8.430;2023-12-22T01:30:59;8.70;99.90
43673;DHT22;41723;49.326;8.430;2023-12-22T01:33:24;8.70;99.90
43673;DHT22;41723;49.326;8.430;2023-12-22T01:35:50;8.20;99.90
43673;DHT22;41723;49.326;8.430;2023-12-22T01:38:16;8.10;99.90
43673;DHT22;41723;49.326;8.430;2023-12-22T01:40:41;8.10;99.90
43673;DHT22;41723;49.326;8.430;2023-12-22T01:43:07;8.10;99.90
43673;DHT22;41723;49.326;8.430;2023-12-22T01:45:33;8.00;99.90
43673;DHT22;41723;49.326;8.430;2023-12-22T01:47:58;7.90;99.90
43673;DHT22;41723;49.326;8.430;2023-12-22T01:50:24;8.00;99.90
43673;DHT22;41723;49.326;8.430;2023-12-22T01:52:49;8.20;99.90
43673;DHT22;41723;49.326;8.430;2023-12-22T01:55:15;8.70;99.90
43673;DHT22;41723;49.326;8.430;2023-12-22T01:57:42;9.10;99.90
43673;DHT22;41723;49.326;8.430;2023-12-22T02:00:09;9.20;99.90
43673;DHT22;41723;49.326;8.430;2023-12-22T02:02:38;9.30;99.90
43673;DHT22;41723;49.326;8.430;2023-12-22T02:05:04;9.40;99.90
43673;DHT22;41723;49.326;8.430;2023-12-22T02:07:31;9.40;99.90
43673;DHT22;41723;49.326;8.430;2023-12-22T02:09:57;9.50;99.90
43673;DHT22;41723;49.326;8.430;2023-12-22T02:12:22;9.60;99.90
43673;DHT22;41723;49.326;8.430;2023-12-22T02:14:48;9.60;99.90
43673;DHT22;41723;49.326;8.430;2023-12-22T02:19:48;9.60;99.90
43673;DHT22;41723;49.326;8.430;2023-12-22T02:22:14;9.70;99.90
43673;DHT22;41723;49.326;8.430;2023-12-22T02:24:40;9.60;99.90
43673;DHT22;41723;49.326;8.430;2023-12-22T02:27:09;9.60;99.90
43673;DHT22;41723;49.326;8.430;2023-12-22T02:29:39;9.70;99.90
43673;DHT22;41723;49.326;8.430;2023-12-22T02:32:07;9.70;99.90
43673;DHT22;41723;49.326;8.430;2023-12-22T02:34:35;9.60;99.90
43673;DHT22;41723;49.326;8.430;2023-12-22T02:37:01;9.60;99.90
43673;DHT22;41723;49.326;8.430;2023-12-22T02:39:28;9.50;99.90
43673;DHT22;41723;49.326;8.430;2023-12-22T02:41:54;9.50;99.90
43673;DHT22;41723;49.326;8.430;2023-12-22T02:44:19;9.50;99.90
43673;DHT22;41723;49.326;8.430;2023-12-22T02:46:45;9.50;99.90
43673;DHT22;41723;49.326;8.430;2023-12-22T02:49:11;9.50;99.90
43673;DHT22;41723;49.326;8.430;2023-12-22T02:51:38;9.50;99.90
43673;DHT22;41723;49.326;8.430;2023-12-22T02:54:04;9.40;99.90
43673;DHT22;41723;49.326;8.430;2023-12-22T02:56:29;9.40;99.90
43673;DHT22;41723;49.326;8.430;2023-12-22T02:58:55;9.50;99.90
43673;DHT22;41723;49.326;8.430;2023-12-22T03:01:20;9.50;99.90
43673;DHT22;41723;49.326;8.430;2023-12-22T03:03:46;9.50;99.90
43673;DHT22;41723;49.326;8.430;2023-12-22T03:06:12;9.50;99.90
43673;DHT22;41723;49.326;8.430;2023-12-22T03:08:37;9.60;99.90
43673;DHT22;41723;49.326;8.430;2023-12-22T03:11:03;9.50;99.90
43673;DHT22;41723;49.326;8.430;2023-12-22T03:13:28;9.60;99.90
43673;DHT22;41723;49.326;8.430;2023-12-22T03:15:54;9.60;99.90
43673;DHT22;41723;49.326;8.430;2023-12-22T03:18:20;9.60;99.90
43673;DHT22;41723;49.326;8.430;2023-12-22T03:20:45;9.60;99.90
43673;DHT22;41723;49.326;8.430;2023-12-22T03:23:11;9.70;99.90
43673;DHT22;41723;49.326;8.430;2023-12-22T03:25:36;9.60;99.90
43673;DHT22;41723;49.326;8.430;2023-12-22T03:28:02;9.60;99.90
43673;DHT22;41723;49.326;8.430;2023-12-22T03:30:28;9.60;99.90
43673;DHT22;41723;49.326;8.430;2023-12-22T03:32:53;9.70;99.90
43673;DHT22;41723;49.326;8.430;2023-12-22T03:35:19;9.70;99.90
43673;DHT22;41723;49.326;8.430;2023-12-22T03:37:45;9.70;99.90
43673;DHT22;41723;49.326;8.430;2023-12-22T03:40:10;9.80;99.90
43673;DHT22;41723;49.326;8.430;2023-12-22T03:42:36;9.70;99.90
43673;DHT22;41723;49.326;8.430;2023-12-22T03:45:02;9.80;99.90
43673;DHT22;41723;49.326;8.430;2023-12-22T03:47:27;9.70;99.90
43673;DHT22;41723;49.326;8.430;2023-12-22T03:49:53;9.60;99.90
43673;DHT22;41723;49.326;8.430;2023-12-22T03:52:18;9.60;99.90
43673;DHT22;41723;49.326;8.430;2023-12-22T03:54:44;9.60;99.90
43673;DHT22;41723;49.326;8.430;2023-12-22T03:57:10;9.60;99.90
43673;DHT22;41723;49.326;8.430;2023-12-22T03:59:35;9.60;99.90
43673;DHT22;41723;49.326;8.430;2023-12-22T04:02:01;9.50;99.90
43673;DHT22;41723;49.326;8.430;2023-12-22T04:04:27;9.50;99.90
43673;DHT22;41723;49.326;8.430;2023-12-22T04:06:53;9.40;99.90
43673;DHT22;41723;49.326;8.430;2023-12-22T04:09:19;9.30;99.90
43673;DHT22;41723;49.326;8.430;2023-12-22T04:11:45;9.30;99.90
43673;DHT22;41723;49.326;8.430;2023-12-22T04:14:10;9.30;99.90
43673;DHT22;41723;49.326;8.430;2023-12-22T04:16:36;9.20;99.90
43673;DHT22;41723;49.326;8.430;2023-12-22T04:19:02;9.10;99.90
43673;DHT22;41723;49.326;8.430;2023-12-22T04:21:28;9.10;99.90
43673;DHT22;41723;49.326;8.430;2023-12-22T04:23:53;9.20;99.90
43673;DHT22;41723;49.326;8.430;2023-12-22T04:26:19;9.10;99.90
43673;DHT22;41723;49.326;8.430;2023-12-22T04:28:44;9.20;99.90
43673;DHT22;41723;49.326;8.430;2023-12-22T04:31:10;9.20;99.90
43673;DHT22;41723;49.326;8.430;2023-12-22T04:33:36;9.20;99.90
43673;DHT22;41723;49.326;8.430;2023-12-22T04:36:01;9.20;99.90
43673;DHT22;41723;49.326;8.430;2023-12-22T04:38:27;9.20;99.90
43673;DHT22;41723;49.326;8.430;2023-12-22T04:40:52;9.20;99.90
43673;DHT22;41723;49.326;8.430;2023-12-22T04:43:18;9.20;99.90
43673;DHT22;41723;49.326;8.430;2023-12-22T04:45:44;9.30;99.90
43673;DHT22;41723;49.326;8.430;2023-12-22T04:48:09;9.30;99.90
43673;DHT22;41723;49.326;8.430;2023-12-22T04:50:35;9.20;99.90
43673;DHT22;41723;49.326;8.430;2023-12-22T04:53:00;9.30;99.90
43673;DHT22;41723;49.326;8.430;2023-12-22T04:55:26;9.20;99.90
43673;DHT22;41723;49.326;8.430;2023-12-22T04:57:52;9.30;99.90
43673;DHT22;41723;49.326;8.430;2023-12-22T05:00:17;9.30;99.90
43673;DHT22;41723;49.326;8.430;2023-12-22T05:02:43;9.30;99.90
43673;DHT22;41723;49.326;8.430;2023-12-22T05:05:09;9.30;99.90
43673;DHT22;41723;49.326;8.430;2023-12-22T05:07:35;9.30;99.90
43673;DHT22;41723;49.326;8.430;2023-12-22T05:10:00;9.30;99.90
43673;DHT22;41723;49.326;8.430;2023-12-22T05:12:26;9.20;99.90
43673;DHT22;41723;49.326;8.430;2023-12-22T05:14:52;9.20;99.90
43673;DHT22;41723;49.326;8.430;2023-12-22T05:17:17;9.20;99.90
43673;DHT22;41723;49.326;8.430;2023-12-22T05:19:43;9.10;99.90
43673;DHT22;41723;49.326;8.430;2023-12-22T05:22:08;9.10;99.90
43673;DHT22;41723;49.326;8.430;2023-12-22T05:24:34;9.20;99.90
43673;DHT22;41723;49.326;8.430;2023-12-22T05:26:59;9.10;99.90
43673;DHT22;41723;49.326;8.430;2023-12-22T05:29:25;9.10;99.90
43673;DHT22;41723;49.326;8.430;2023-12-22T05:31:51;9.00;99.90
43673;DHT22;41723;49.326;8.430;2023-12-22T05:34:16;9.00;99.90
43673;DHT22;41723;49.326;8.430;2023-12-22T05:36:42;9.00;99.90
43673;DHT22;41723;49.326;8.430;2023-12-22T05:39:13;9.00;99.90
43673;DHT22;41723;49.326;8.430;2023-12-22T05:41:39;9.00;99.90
43673;DHT22;41723;49.326;8.430;2023-12-22T05:44:05;9.00;99.90
43673;DHT22;41723;49.326;8.430;2023-12-22T05:46:35;9.10;99.90
43673;DHT22;41723;49.326;8.430;2023-12-22T05:49:00;9.10;99.90
43673;DHT22;41723;49.326;8.430;2023-12-22T05:51:26;9.30;99.90
43673;DHT22;41723;49.326;8.430;2023-12-22T05:53:52;9.30;99.90
43673;DHT22;41723;49.326;8.430;2023-12-22T05:56:19;9.30;99.90
43673;DHT22;41723;49.326;8.430;2023-12-22T05:58:45;9.30;99.90
43673;DHT22;41723;49.326;8.430;2023-12-22T06:01:15;9.40;99.90
43673;DHT22;41723;49.326;8.430;2023-12-22T06:03:41;9.40;99.90
43673;DHT22;41723;49.326;8.430;2023-12-22T06:06:06;9.50;99.90
43673;DHT22;41723;49.326;8.430;2023-12-22T06:08:32;9.50;99.90
43673;DHT22;41723;49.326;8.430;2023-12-22T06:10:57;9.50;99.90
43673;DHT22;41723;49.326;8.430;2023-12-22T06:13:23;9.50;99.90
43673;DHT22;41723;49.326;8.430;2023-12-22T06:15:50;9.50;99.90
43673;DHT22;41723;49.326;8.430;2023-12-22T06:18:15;9.50;99.90
43673;DHT22;41723;49.326;8.430;2023-12-22T06:20:41;9.50;99.90
43673;DHT22;41723;49.326;8.430;2023-12-22T06:23:06;9.50;99.90
43673;DHT22;41723;49.326;8.430;2023-12-22T06:25:32;9.60;99.90
43673;DHT22;41723;49.326;8.430;2023-12-22T06:27:57;9.60;99.90
43673;DHT22;41723;49.326;8.430;2023-12-22T06:30:23;9.60;99.90
43673;DHT22;41723;49.326;8.430;2023-12-22T06:32:49;9.60;99.90
43673;DHT22;41723;49.326;8.430;2023-12-22T06:35:14;9.60;99.90
43673;DHT22;41723;49.326;8.430;2023-12-22T06:37:40;9.70;99.90
43673;DHT22;41723;49.326;8.430;2023-12-22T06:40:06;9.70;99.90
43673;DHT22;41723;49.326;8.430;2023-12-22T06:42:31;9.70;99.90
43673;DHT22;41723;49.326;8.430;2023-12-22T06:44:57;9.70;99.90
43673;DHT22;41723;49.326;8.430;2023-12-22T06:47:23;9.60;99.90
43673;DHT22;41723;49.326;8.430;2023-12-22T06:49:49;9.60;99.90
43673;DHT22;41723;49.326;8.430;2023-12-22T06:52:14;9.60;99.90
43673;DHT22;41723;49.326;8.430;2023-12-22T06:54:40;9.60;99.90
43673;DHT22;41723;49.326;8.430;2023-12-22T06:57:05;9.70;99.90
43673;DHT22;41723;49.326;8.430;2023-12-22T06:59:31;9.60;99.90
43673;DHT22;41723;49.326;8.430;2023-12-22T07:01:57;9.60;99.90
43673;DHT22;41723;49.326;8.430;2023-12-22T07:04:24;9.60;99.90
43673;DHT22;41723;49.326;8.430;2023-12-22T07:06:50;9.60;99.90
43673;DHT22;41723;49.326;8.430;2023-12-22T07:11:42;9.50;99.90
43673;DHT22;41723;49.326;8.430;2023-12-22T07:14:08;9.50;99.90
43673;DHT22;41723;49.326;8.430;2023-12-22T07:16:34;9.50;99.90
43673;DHT22;41723;49.326;8.430;2023-12-22T07:18:59;9.50;99.90
43673;DHT22;41723;49.326;8.430;2023-12-22T07:21:26;9.50;99.90
43673;DHT22;41723;49.326;8.430;2023-12-22T07:23:51;9.50;99.90
43673;DHT22;41723;49.326;8.430;2023-12-22T07:26:17;9.50;99.90
43673;DHT22;41723;49.326;8.430;2023-12-22T07:28:46;9.50;99.90
43673;DHT22;41723;49.326;8.430;2023-12-22T07:31:11;9.50;99.90
43673;DHT22;41723;49.326;8.430;2023-12-22T07:33:37;9.50;99.90
43673;DHT22;41723;49.326;8.430;2023-12-22T07:36:02;9.40;99.90
43673;DHT22;41723;49.326;8.430;2023-12-22T07:38:28;9.50;99.90
43673;DHT22;41723;49.326;8.430;2023-12-22T07:40:54;9.50;99.90
43673;DHT22;41723;49.326;8.430;2023-12-22T07:43:19;9.50;99.90
43673;DHT22;41723;49.326;8.430;2023-12-22T07:45:45;9.40;99.90
43673;DHT22;41723;49.326;8.430;2023-12-22T07:48:10;9.50;99.90
43673;DHT22;41723;49.326;8.430;2023-12-22T07:50:36;9.40;99.90
43673;DHT22;41723;49.326;8.430;2023-12-22T07:53:02;9.40;99.90
43673;DHT22;41723;49.326;8.430;2023-12-22T07:55:27;9.30;99.90
43673;DHT22;41723;49.326;8.430;2023-12-22T07:57:53;9.30;99.90
43673;DHT22;41723;49.326;8.430;2023-12-22T08:00:18;9.40;99.90
43673;DHT22;41723;49.326;8.430;2023-12-22T08:02:44;9.30;99.90
43673;DHT22;41723;49.326;8.430;2023-12-22T08:05:10;9.40;99.90
43673;DHT22;41723;49.326;8.430;2023-12-22T08:07:35;9.30;99.90
43673;DHT22;41723;49.326;8.430;2023-12-22T08:10:01;9.30;99.90
43673;DHT22;41723;49.326;8.430;2023-12-22T08:12:28;9.40;99.90
43673;DHT22;41723;49.326;8.430;2023-12-22T08:14:54;9.40;99.90
43673;DHT22;41723;49.326;8.430;2023-12-22T08:17:19;9.40;99.90
43673;DHT22;41723;49.326;8.430;2023-12-22T08:19:45;9.40;99.90
43673;DHT22;41723;49.326;8.430;2023-12-22T08:22:11;9.40;99.90
43673;DHT22;41723;49.326;8.430;2023-12-22T08:24:38;9.40;99.90
43673;DHT22;41723;49.326;8.430;2023-12-22T08:27:05;9.40;99.90
43673;DHT22;41723;49.326;8.430;2023-12-22T08:29:32;9.50;99.90
43673;DHT22;41723;49.326;8.430;2023-12-22T08:31:57;9.50;99.90
43673;DHT22;41723;49.326;8.430;2023-12-22T08:34:23;9.50;99.90
43673;DHT22;41723;49.326;8.430;2023-12-22T08:36:48;9.60;99.90
43673;DHT22;41723;49.326;8.430;2023-12-22T08:39:14;9.60;99.90
43673;DHT22;41723;49.326;8.430;2023-12-22T08:41:40;9.60;99.90
43673;DHT22;41723;49.326;8.430;2023-12-22T08:44:05;9.70;99.90
43673;DHT22;41723;49.326;8.430;2023-12-22T08:46:31;9.70;99.90
43673;DHT22;41723;49.326;8.430;2023-12-22T08:48:57;9.70;99.90
43673;DHT22;41723;49.326;8.430;2023-12-22T08:51:25;9.70;99.90
43673;DHT22;41723;49.326;8.430;2023-12-22T08:53:50;9.80;99.90
43673;DHT22;41723;49.326;8.430;2023-12-22T08:56:17;9.80;99.90
43673;DHT22;41723;49.326;8.430;2023-12-22T08:58:43;9.80;99.90
43673;DHT22;41723;49.326;8.430;2023-12-22T09:01:15;9.80;99.90
43673;DHT22;41723;49.326;8.430;2023-12-22T09:03:41;9.80;99.90
43673;DHT22;41723;49.326;8.430;2023-12-22T09:06:11;9.80;99.90
43673;DHT22;41723;49.326;8.430;2023-12-22T09:08:38;9.80;99.90
43673;DHT22;41723;49.326;8.430;2023-12-22T09:11:04;9.90;99.90
43673;DHT22;41723;49.326;8.430;2023-12-22T09:13:30;9.80;99.90
43673;DHT22;41723;49.326;8.430;2023-12-22T09:15:56;9.80;99.90
43673;DHT22;41723;49.326;8.430;2023-12-22T09:18:22;9.90;99.90
43673;DHT22;41723;49.326;8.430;2023-12-22T09:20:48;9.80;99.90
43673;DHT22;41723;49.326;8.430;2023-12-22T09:23:14;9.90;99.90
43673;DHT22;41723;49.326;8.430;2023-12-22T09:25:39;9.90;99.90
43673;DHT22;41723;49.326;8.430;2023-12-22T09:28:05;9.90;99.90
43673;DHT22;41723;49.326;8.430;2023-12-22T09:30:31;9.90;99.90
43673;DHT22;41723;49.326;8.430;2023-12-22T09:32:57;9.90;99.90
43673;DHT22;41723;49.326;8.430;2023-12-22T09:35:23;9.90;99.90
43673;DHT22;41723;49.326;8.430;2023-12-22T09:37:50;9.90;99.90
43673;DHT22;41723;49.326;8.430;2023-12-22T09:40:16;10.00;99.90
43673;DHT22;41723;49.326;8.430;2023-12-22T09:42:42;9.90;99.90
43673;DHT22;41723;49.326;8.430;2023-12-22T09:45:11;10.00;99.90
43673;DHT22;41723;49.326;8.430;2023-12-22T09:47:37;10.00;99.90
43673;DHT22;41723;49.326;8.430;2023-12-22T09:50:04;10.00;99.90
43673;DHT22;41723;49.326;8.430;2023-12-22T09:52:30;10.00;99.90
43673;DHT22;41723;49.326;8.430;2023-12-22T09:54:57;10.00;99.90
43673;DHT22;41723;49.326;8.430;2023-12-22T09:57:23;10.00;99.90
43673;DHT22;41723;49.326;8.430;2023-12-22T09:59:49;10.10;99.90
43673;DHT22;41723;49.326;8.430;2023-12-22T10:02:16;10.00;99.90
43673;DHT22;41723;49.326;8.430;2023-12-22T10:04:42;10.00;99.90
43673;DHT22;41723;49.326;8.430;2023-12-22T10:07:07;10.00;99.90
43673;DHT22;41723;49.326;8.430;2023-12-22T10:09:33;10.00;99.90
43673;DHT22;41723;49.326;8.430;2023-12-22T10:12:00;10.00;99.90
43673;DHT22;41723;49.326;8.430;2023-12-22T10:14:26;10.00;99.90
43673;DHT22;41723;49.326;8.430;2023-12-22T10:16:52;10.00;99.90
43673;DHT22;41723;49.326;8.430;2023-12-22T10:19:19;10.10;99.90
43673;DHT22;41723;49.326;8.430;2023-12-22T10:21:45;10.10;99.90
43673;DHT22;41723;49.326;8.430;2023-12-22T10:26:55;10.10;99.90
43673;DHT22;41723;49.326;8.430;2023-12-22T10:29:21;10.10;99.90
43673;DHT22;41723;49.326;8.430;2023-12-22T10:31:46;10.20;99.90
43673;DHT22;41723;49.326;8.430;2023-12-22T10:34:12;10.10;99.90
43673;DHT22;41723;49.326;8.430;2023-12-22T10:36:37;10.10;99.90
43673;DHT22;41723;49.326;8.430;2023-12-22T10:39:03;10.00;99.90
43673;DHT22;41723;49.326;8.430;2023-12-22T10:41:29;10.00;99.90
43673;DHT22;41723;49.326;8.430;2023-12-22T10:43:54;10.00;99.90
43673;DHT22;41723;49.326;8.430;2023-12-22T10:46:20;10.00;99.90
43673;DHT22;41723;49.326;8.430;2023-12-22T10:48:45;10.10;99.90
43673;DHT22;41723;49.326;8.430;2023-12-22T10:51:11;10.10;99.90
43673;DHT22;41723;49.326;8.430;2023-12-22T10:53:40;10.00;99.90
43673;DHT22;41723;49.326;8.430;2023-12-22T10:56:05;10.10;99.90
43673;DHT22;41723;49.326;8.430;2023-12-22T10:58:31;10.00;99.90
43673;DHT22;41723;49.326;8.430;2023-12-22T11:00:57;10.00;99.90
43673;DHT22;41723;49.326;8.430;2023-12-22T11:03:23;10.00;99.90
43673;DHT22;41723;49.326;8.430;2023-12-22T11:05:50;10.00;99.90
43673;DHT22;41723;49.326;8.430;2023-12-22T11:08:16;10.00;99.90
43673;DHT22;41723;49.326;8.430;2023-12-22T11:10:42;9.90;99.90
43673;DHT22;41723;49.326;8.430;2023-12-22T11:13:10;9.90;99.90
43673;DHT22;41723;49.326;8.430;2023-12-22T11:15:37;9.90;99.90
43673;DHT22;41723;49.326;8.430;2023-12-22T11:18:05;10.00;99.90
43673;DHT22;41723;49.326;8.430;2023-12-22T11:20:31;9.90;99.90
43673;DHT22;41723;49.326;8.430;2023-12-22T11:22:58;9.80;99.90
43673;DHT22;41723;49.326;8.430;2023-12-22T11:25:25;9.80;99.90
43673;DHT22;41723;49.326;8.430;2023-12-22T11:27:51;9.80;99.90
43673;DHT22;41723;49.326;8.430;2023-12-22T11:30:18;9.80;99.90
43673;DHT22;41723;49.326;8.430;2023-12-22T11:32:44;9.70;99.90
43673;DHT22;41723;49.326;8.430;2023-12-22T11:35:10;9.70;99.90
43673;DHT22;41723;49.326;8.430;2023-12-22T11:37:36;9.80;99.90
43673;DHT22;41723;49.326;8.430;2023-12-22T11:40:05;9.70;99.90
43673;DHT22;41723;49.326;8.430;2023-12-22T11:42:32;9.70;99.90
43673;DHT22;41723;49.326;8.430;2023-12-22T11:44:59;9.60;99.90
43673;DHT22;41723;49.326;8.430;2023-12-22T11:47:25;9.60;99.90
43673;DHT22;41723;49.326;8.430;2023-12-22T11:49:51;9.60;99.90
43673;DHT22;41723;49.326;8.430;2023-12-22T11:52:17;9.60;99.90
43673;DHT22;41723;49.326;8.430;2023-12-22T11:54:53;9.50;99.90
43673;DHT22;41723;49.326;8.430;2023-12-22T11:57:29;9.60;99.90
43673;DHT22;41723;49.326;8.430;2023-12-22T11:59:58;9.60;99.90
43673;DHT22;41723;49.326;8.430;2023-12-22T12:02:24;9.60;99.90
43673;DHT22;41723;49.326;8.430;2023-12-22T12:04:53;9.60;99.90
43673;DHT22;41723;49.326;8.430;2023-12-22T12:07:38;9.60;99.90
43673;DHT22;41723;49.326;8.430;2023-12-22T12:10:10;9.60;99.90
43673;DHT22;41723;49.326;8.430;2023-12-22T12:12:36;9.60;99.90
43673;DHT22;41723;49.326;8.430;2023-12-22T12:15:17;9.60;99.90
43673;DHT22;41723;49.326;8.430;2023-12-22T12:17:42;9.60;99.90
43673;DHT22;41723;49.326;8.430;2023-12-22T12:20:09;9.60;99.90
43673;DHT22;41723;49.326;8.430;2023-12-22T12:22:35;9.60;99.90
43673;DHT22;41723;49.326;8.430;2023-12-22T12:25:04;9.60;99.90
43673;DHT22;41723;49.326;8.430;2023-12-22T12:27:32;9.60;99.90
43673;DHT22;41723;49.326;8.430;2023-12-22T12:30:03;9.60;99.90
43673;DHT22;41723;49.326;8.430;2023-12-22T12:32:29;9.60;99.90
43673;DHT22;41723;49.326;8.430;2023-12-22T12:34:55;9.60;99.90
43673;DHT22;41723;49.326;8.430;2023-12-22T12:37:21;9.60;99.90
43673;DHT22;41723;49.326;8.430;2023-12-22T12:39:47;9.60;99.90
43673;DHT22;41723;49.326;8.430;2023-12-22T12:42:14;9.50;99.90
43673;DHT22;41723;49.326;8.430;2023-12-22T12:44:40;9.50;99.90
43673;DHT22;41723;49.326;8.430;2023-12-22T12:47:11;9.50;99.90
43673;DHT22;41723;49.326;8.430;2023-12-22T12:49:37;9.50;99.90
43673;DHT22;41723;49.326;8.430;2023-12-22T12:52:03;9.40;99.90
43673;DHT22;41723;49.326;8.430;2023-12-22T12:54:28;9.40;99.90
43673;DHT22;41723;49.326;8.430;2023-12-22T12:56:54;9.40;99.90
43673;DHT22;41723;49.326;8.430;2023-12-22T12:59:20;9.40;99.90
43673;DHT22;41723;49.326;8.430;2023-12-22T13:01:46;9.50;99.90
43673;DHT22;41723;49.326;8.430;2023-12-22T13:04:12;9.40;99.90
43673;DHT22;41723;49.326;8.430;2023-12-22T13:06:50;9.40;99.90
43673;DHT22;41723;49.326;8.430;2023-12-22T13:09:16;9.40;99.90
43673;DHT22;41723;49.326;8.430;2023-12-22T13:11:42;9.40;99.90
43673;DHT22;41723;49.326;8.430;2023-12-22T13:14:09;9.40;99.90
43673;DHT22;41723;49.326;8.430;2023-12-22T13:16:35;9.40;99.90
43673;DHT22;41723;49.326;8.430;2023-12-22T13:19:00;9.50;99.90
43673;DHT22;41723;49.326;8.430;2023-12-22T13:21:29;9.50;99.90
43673;DHT22;41723;49.326;8.430;2023-12-22T13:24:11;9.70;99.90
43673;DHT22;41723;49.326;8.430;2023-12-22T13:26:37;9.90;99.90
43673;DHT22;41723;49.326;8.430;2023-12-22T13:29:03;10.10;99.90
43673;DHT22;41723;49.326;8.430;2023-12-22T13:31:29;10.20;99.90
43673;DHT22;41723;49.326;8.430;2023-12-22T13:33:55;10.50;99.90
43673;DHT22;41723;49.326;8.430;2023-12-22T13:36:21;10.60;99.90
43673;DHT22;41723;49.326;8.430;2023-12-22T13:38:48;10.60;99.90
43673;DHT22;41723;49.326;8.430;2023-12-22T13:41:14;10.70;99.90
43673;DHT22;41723;49.326;8.430;2023-12-22T13:43:40;10.80;99.90
43673;DHT22;41723;49.326;8.430;2023-12-22T13:46:06;10.90;99.90
43673;DHT22;41723;49.326;8.430;2023-12-22T13:48:33;11.00;99.90
43673;DHT22;41723;49.326;8.430;2023-12-22T13:51:00;11.00;99.90
43673;DHT22;41723;49.326;8.430;2023-12-22T13:53:26;11.00;99.90
43673;DHT22;41723;49.326;8.430;2023-12-22T13:55:58;11.10;99.90
43673;DHT22;41723;49.326;8.430;2023-12-22T13:58:25;11.10;99.90
43673;DHT22;41723;49.326;8.430;2023-12-22T14:00:51;11.10;99.90
43673;DHT22;41723;49.326;8.430;2023-12-22T14:03:16;11.20;99.90
43673;DHT22;41723;49.326;8.430;2023-12-22T14:05:44;11.20;99.90
43673;DHT22;41723;49.326;8.430;2023-12-22T14:08:10;11.20;99.90
43673;DHT22;41723;49.326;8.430;2023-12-22T14:10:36;11.20;99.90
43673;DHT22;41723;49.326;8.430;2023-12-22T14:13:02;11.30;99.90
43673;DHT22;41723;49.326;8.430;2023-12-22T14:15:30;11.30;99.90
43673;DHT22;41723;49.326;8.430;2023-12-22T14:17:56;11.30;99.90
43673;DHT22;41723;49.326;8.430;2023-12-22T14:20:22;11.30;99.90
43673;DHT22;41723;49.326;8.430;2023-12-22T14:22:47;11.30;99.90
43673;DHT22;41723;49.326;8.430;2023-12-22T14:25:13;11.30;99.90
43673;DHT22;41723;49.326;8.430;2023-12-22T14:27:39;11.30;99.90
43673;DHT22;41723;49.326;8.430;2023-12-22T14:30:04;11.30;99.90
43673;DHT22;41723;49.326;8.430;2023-12-22T14:32:30;11.30;99.90
43673;DHT22;41723;49.326;8.430;2023-12-22T14:34:55;11.30;99.90
43673;DHT22;41723;49.326;8.430;2023-12-22T14:37:21;11.20;99.90
43673;DHT22;41723;49.326;8.430;2023-12-22T14:39:47;11.20;99.90
43673;DHT22;41723;49.326;8.430;2023-12-22T14:42:13;11.20;99.90
43673;DHT22;41723;49.326;8.430;2023-12-22T14:44:39;11.20;99.90
43673;DHT22;41723;49.326;8.430;2023-12-22T14:47:05;11.00;99.90
43673;DHT22;41723;49.326;8.430;2023-12-22T14:49:31;11.00;99.90
43673;DHT22;41723;49.326;8.430;2023-12-22T14:51:57;11.00;99.90
43673;DHT22;41723;49.326;8.430;2023-12-22T14:54:24;11.00;99.90
43673;DHT22;41723;49.326;8.430;2023-12-22T14:56:50;11.00;99.90
43673;DHT22;41723;49.326;8.430;2023-12-22T14:59:16;11.00;99.90
43673;DHT22;41723;49.326;8.430;2023-12-22T15:01:42;11.10;99.90
43673;DHT22;41723;49.326;8.430;2023-12-22T15:04:08;11.00;99.90
43673;DHT22;41723;49.326;8.430;2023-12-22T15:06:37;11.00;99.90
43673;DHT22;41723;49.326;8.430;2023-12-22T15:09:03;10.90;99.90
43673;DHT22;41723;49.326;8.430;2023-12-22T15:11:29;10.90;99.90
43673;DHT22;41723;49.326;8.430;2023-12-22T15:13:54;10.80;99.90
43673;DHT22;41723;49.326;8.430;2023-12-22T15:16:20;10.80;99.90
43673;DHT22;41723;49.326;8.430;2023-12-22T15:18:46;10.70;99.90
43673;DHT22;41723;49.326;8.430;2023-12-22T15:21:21;10.70;99.90
43673;DHT22;41723;49.326;8.430;2023-12-22T15:23:47;10.70;99.90
43673;DHT22;41723;49.326;8.430;2023-12-22T15:26:22;10.70;99.90
43673;DHT22;41723;49.326;8.430;2023-12-22T15:28:47;10.80;99.90
43673;DHT22;41723;49.326;8.430;2023-12-22T15:31:13;10.80;99.90
43673;DHT22;41723;49.326;8.430;2023-12-22T15:33:39;10.90;99.90
43673;DHT22;41723;49.326;8.430;2023-12-22T15:36:04;11.00;99.90
43673;DHT22;41723;49.326;8.430;2023-12-22T15:38:30;10.90;99.90
43673;DHT22;41723;49.326;8.430;2023-12-22T15:40:59;11.00;99.90
43673;DHT22;41723;49.326;8.430;2023-12-22T15:43:24;11.00;99.90